createdAt,value
2018-12-11T00:01:42.480Z,71.40
2018-12-11T00:04:10.724Z,71.61
2018-12-11T00:06:38.974Z,71.57
2018-12-11T00:09:07.380Z,71.81
2018-12-11T00:11:35.798Z,71.87
2018-12-11T00:14:04.116Z,71.52
2018-12-11T00:16:32.379Z,71.46
2018-12-11T00:19:00.628Z,71.29
2018-12-11T00:21:28.999Z,71.73
2018-12-11T00:23:57.256Z,71.09
2018-12-11T00:26:25.491Z,71.37
2018-12-11T00:28:53.768Z,71.37
2018-12-11T00:31:22.115Z,71.42
2018-12-11T00:33:50.444Z,71.36
2018-12-11T00:36:18.699Z,71.64
2018-12-11T00:38:46.906Z,71.68
2018-12-11T00:41:15.137Z,71.80
2018-12-11T00:43:43.380Z,71.83
2018-12-11T00:46:11.711Z,71.62
2018-12-11T00:48:40.005Z,71.64
2018-12-11T00:51:08.291Z,71.74
2018-12-11T00:53:36.570Z,71.64
2018-12-11T00:56:04.881Z,71.13
2018-12-11T00:58:33.110Z,71.05
2018-12-11T01:01:01.423Z,71.14
2018-12-11T02:30:49.865Z,71.09
2018-12-11T02:33:18.323Z,71.23
2018-12-11T02:35:46.815Z,71.33
2018-12-11T02:40:53.961Z,71.37
2018-12-11T02:43:22.570Z,71.19
2018-12-11T02:45:51.101Z,71.09
2018-12-11T02:48:19.718Z,71.48
2018-12-11T02:50:48.275Z,71.50
2018-12-11T02:53:16.857Z,71.54
2018-12-11T03:04:20.840Z,71.64
2018-12-11T03:06:49.420Z,71.57
2018-12-11T03:09:18.018Z,71.76
2018-12-11T03:11:46.594Z,72.03
2018-12-11T03:14:15.223Z,72.13
2018-12-11T03:16:43.787Z,71.79
2018-12-11T03:27:37.824Z,72.08
2018-12-11T03:30:06.712Z,71.88
2018-12-11T03:32:35.268Z,71.73
2018-12-11T03:35:03.921Z,71.54
2018-12-11T03:37:32.487Z,71.59
2018-12-11T03:40:01.017Z,71.17
2018-12-11T03:42:29.553Z,71.20
2018-12-11T03:44:58.100Z,71.53
2018-12-11T03:47:26.701Z,71.28
2018-12-11T03:49:55.308Z,71.40
2018-12-11T04:00:56.556Z,71.18
2018-12-11T04:03:24.803Z,71.24
2018-12-11T04:05:53.011Z,71.06
2018-12-11T04:08:21.302Z,70.77
2018-12-11T04:10:50.119Z,71.31
2018-12-11T04:13:18.414Z,70.43
2018-12-11T04:15:46.607Z,70.83
2018-12-11T04:18:14.940Z,70.47
2018-12-11T04:20:43.193Z,70.67
2018-12-11T04:23:11.439Z,70.86
2018-12-11T04:25:39.681Z,71.09
2018-12-11T04:28:07.913Z,70.75
2018-12-11T04:30:36.118Z,70.66
2018-12-11T04:33:04.353Z,70.69
2018-12-11T04:35:32.554Z,70.42
2018-12-11T04:38:00.784Z,70.46
2018-12-11T04:40:29.131Z,70.53
2018-12-11T04:42:57.347Z,70.24
2018-12-11T04:45:25.662Z,70.05
2018-12-11T04:47:53.885Z,70.09
2018-12-11T04:50:22.117Z,70.43
2018-12-11T04:52:50.380Z,70.28
2018-12-11T04:55:18.633Z,70.08
2018-12-11T04:57:46.881Z,70.03
2018-12-11T05:00:15.107Z,69.60
2018-12-11T05:02:43.315Z,69.30
2018-12-11T05:05:11.522Z,69.43
2018-12-11T05:07:39.729Z,69.01
2018-12-11T05:10:08.355Z,69.15
2018-12-11T05:12:36.571Z,69.14
2018-12-11T05:15:05.231Z,69.39
2018-12-11T05:17:33.495Z,69.72
2018-12-11T05:20:01.776Z,69.30
2018-12-11T05:22:29.999Z,69.13
2018-12-11T05:24:58.419Z,68.97
2018-12-11T05:27:26.651Z,69.02
2018-12-11T05:29:54.869Z,69.53
2018-12-11T05:32:23.135Z,69.37
2018-12-11T05:34:51.389Z,69.43
2018-12-11T05:37:19.809Z,68.79
2018-12-11T05:39:48.064Z,68.93
2018-12-11T05:42:16.269Z,68.94
2018-12-11T05:44:44.581Z,69.07
2018-12-11T05:47:12.783Z,68.70
2018-12-11T05:49:41.103Z,68.76
2018-12-11T05:52:09.313Z,68.75
2018-12-11T05:54:37.518Z,68.74
2018-12-11T05:57:05.723Z,68.37
2018-12-11T05:59:33.959Z,68.17
2018-12-11T06:02:02.194Z,68.00
2018-12-11T06:04:30.472Z,68.07
2018-12-11T06:06:58.691Z,68.18
2018-12-11T06:09:26.930Z,68.09
2018-12-11T06:11:55.215Z,67.86
2018-12-11T06:14:23.435Z,67.90
2018-12-11T06:16:51.653Z,67.99
2018-12-11T06:19:19.873Z,68.20
2018-12-11T06:21:48.127Z,67.71
2018-12-11T06:24:16.368Z,68.12
2018-12-11T06:26:44.630Z,67.82
2018-12-11T06:29:12.885Z,67.44
2018-12-11T06:31:41.126Z,67.62
2018-12-11T06:34:09.344Z,67.44
2018-12-11T06:36:37.542Z,68.48
2018-12-11T06:39:06.982Z,67.76
2018-12-11T06:41:35.266Z,67.53
2018-12-11T06:44:03.543Z,67.07
2018-12-11T06:46:31.772Z,67.14
2018-12-11T06:49:00.044Z,66.96
2018-12-11T06:51:28.294Z,66.69
2018-12-11T06:53:56.526Z,67.05
2018-12-11T06:56:24.860Z,67.11
2018-12-11T06:58:53.117Z,67.20
2018-12-11T07:01:21.379Z,67.16
2018-12-11T07:03:49.639Z,66.82
2018-12-11T07:06:17.876Z,67.20
2018-12-11T07:08:46.177Z,67.15
2018-12-11T07:11:14.394Z,66.87
2018-12-11T07:13:42.644Z,66.84
2018-12-11T07:16:10.941Z,66.50
2018-12-11T07:18:39.176Z,66.52
2018-12-11T07:21:07.389Z,66.37
2018-12-11T07:23:35.605Z,66.29
2018-12-11T07:26:04.003Z,66.42
2018-12-11T07:28:32.207Z,66.69
2018-12-11T07:31:00.443Z,66.14
2018-12-11T07:33:28.658Z,66.44
2018-12-11T07:35:56.912Z,67.18
2018-12-11T07:38:25.241Z,66.25
2018-12-11T07:40:53.532Z,66.42
2018-12-11T07:43:21.807Z,66.41
2018-12-11T07:45:50.177Z,66.44
2018-12-11T07:48:18.451Z,65.78
2018-12-11T07:50:46.677Z,65.72
2018-12-11T07:53:14.960Z,65.78
2018-12-11T07:55:43.197Z,65.42
2018-12-11T07:58:11.459Z,65.39
2018-12-11T08:00:39.738Z,65.33
2018-12-11T08:03:11.105Z,65.42
2018-12-11T08:05:39.866Z,65.64
2018-12-11T08:08:10.278Z,65.12
2018-12-11T08:10:38.568Z,65.68
2018-12-11T08:13:06.905Z,65.09
2018-12-11T08:15:35.147Z,65.30
2018-12-11T08:18:03.399Z,65.19
2018-12-11T08:20:31.672Z,64.74
2018-12-11T08:22:59.935Z,64.89
2018-12-11T08:25:28.183Z,65.20
2018-12-11T08:27:56.408Z,64.71
2018-12-11T08:30:24.642Z,65.10
2018-12-11T08:32:52.919Z,65.41
2018-12-11T08:35:21.162Z,65.18
2018-12-11T08:37:49.540Z,65.20
2018-12-11T08:40:17.815Z,65.33
2018-12-11T08:42:46.093Z,65.29
2018-12-11T08:45:14.326Z,65.40
2018-12-11T08:47:42.563Z,65.14
2018-12-11T08:50:10.840Z,64.75
2018-12-11T08:52:39.120Z,64.94
2018-12-11T08:55:07.432Z,65.46
2018-12-11T08:57:35.750Z,64.51
2018-12-11T09:00:04.469Z,64.97
2018-12-11T09:02:32.822Z,64.73
2018-12-11T09:05:01.084Z,63.90
2018-12-11T09:07:29.338Z,64.30
2018-12-11T09:09:57.569Z,63.98
2018-12-11T09:12:25.814Z,63.77
2018-12-11T09:14:54.096Z,64.24
2018-12-11T09:17:22.334Z,63.61
2018-12-11T09:19:50.657Z,63.17
2018-12-11T09:22:18.952Z,63.73
2018-12-11T09:24:47.256Z,62.90
2018-12-11T09:27:15.648Z,63.63
2018-12-11T09:29:43.998Z,64.09
2018-12-11T09:32:12.223Z,63.24
2018-12-11T09:34:40.456Z,63.29
2018-12-11T09:37:09.170Z,62.91
2018-12-11T09:39:37.507Z,62.16
2018-12-11T09:42:07.363Z,62.08
2018-12-11T09:44:36.099Z,62.50
2018-12-11T09:47:04.403Z,62.40
2018-12-11T09:49:32.751Z,62.90
2018-12-11T09:52:01.005Z,62.95
2018-12-11T09:54:29.243Z,62.33
2018-12-11T09:56:58.039Z,62.13
2018-12-11T09:59:26.410Z,61.13
2018-12-11T10:01:54.713Z,60.94
2018-12-11T10:04:22.920Z,61.70
2018-12-11T10:06:51.142Z,61.13
2018-12-11T10:09:19.528Z,61.14
2018-12-11T10:11:48.024Z,60.88
2018-12-11T10:14:16.345Z,60.83
2018-12-11T10:16:44.583Z,60.62
2018-12-11T10:19:12.815Z,60.65
2018-12-11T10:21:41.188Z,60.12
2018-12-11T10:24:09.465Z,60.36
2018-12-11T10:26:37.732Z,60.06
2018-12-11T10:29:06.271Z,59.64
2018-12-11T10:31:34.559Z,59.31
2018-12-11T10:34:02.830Z,59.40
2018-12-11T10:36:31.113Z,58.99
2018-12-11T10:38:59.346Z,58.81
2018-12-11T10:41:27.575Z,58.87
2018-12-11T10:43:56.189Z,58.81
2018-12-11T10:46:24.420Z,57.77
2018-12-11T10:48:52.662Z,58.12
2018-12-11T10:51:20.925Z,57.69
2018-12-11T10:53:49.143Z,57.56
2018-12-11T10:56:17.455Z,57.25
2018-12-11T10:58:45.787Z,57.33
2018-12-11T11:01:19.118Z,56.46
2018-12-11T11:03:47.679Z,57.07
2018-12-11T11:06:15.927Z,57.04
2018-12-11T11:08:44.231Z,57.30
2018-12-11T11:11:12.531Z,57.17
2018-12-11T11:13:40.779Z,56.93
2018-12-11T11:16:14.667Z,57.36
2018-12-11T11:18:44.020Z,57.82
2018-12-11T11:21:12.329Z,57.67
2018-12-11T11:23:40.534Z,57.74
2018-12-11T11:26:08.795Z,57.67
2018-12-11T11:28:37.090Z,57.39
2018-12-11T11:31:05.506Z,57.84
2018-12-11T11:33:33.946Z,58.70
2018-12-11T11:36:02.287Z,58.52
2018-12-11T11:38:30.537Z,58.95
2018-12-11T11:40:58.759Z,58.69
2018-12-11T11:43:26.981Z,59.28
2018-12-11T11:45:55.213Z,58.87
2018-12-11T11:48:23.510Z,59.23
2018-12-11T11:50:51.746Z,59.53
2018-12-11T11:53:20.104Z,60.00
2018-12-11T11:55:48.323Z,59.64
2018-12-11T11:58:16.568Z,60.15
2018-12-11T12:00:44.940Z,60.64
2018-12-11T12:03:13.198Z,60.22
2018-12-11T12:05:41.505Z,60.34
2018-12-11T12:08:09.750Z,60.41
2018-12-11T12:10:38.199Z,60.53
2018-12-11T12:13:06.415Z,60.66
2018-12-11T12:15:34.617Z,60.93
2018-12-11T12:18:02.850Z,60.86
2018-12-11T12:20:31.133Z,61.00
2018-12-11T12:22:59.463Z,61.25
2018-12-11T12:25:28.268Z,61.23
2018-12-11T12:27:56.506Z,61.11
2018-12-11T12:30:26.630Z,61.01
2018-12-11T12:32:54.874Z,61.63
2018-12-11T12:35:23.140Z,61.48
2018-12-11T12:37:51.411Z,61.18
2018-12-11T12:40:19.620Z,61.37
2018-12-11T12:42:47.840Z,61.47
2018-12-11T12:45:16.047Z,60.78
2018-12-11T12:47:44.353Z,61.47
2018-12-11T12:50:12.569Z,61.36
2018-12-11T12:52:40.881Z,61.45
2018-12-11T12:55:09.197Z,61.95
2018-12-11T12:57:37.438Z,61.61
2018-12-11T13:00:08.271Z,61.62
2018-12-11T13:02:36.502Z,61.78
2018-12-11T13:05:05.435Z,62.07
2018-12-11T13:07:33.747Z,62.23
2018-12-11T13:10:02.078Z,62.24
2018-12-11T13:12:30.840Z,61.54
2018-12-11T13:14:59.102Z,62.03
2018-12-11T13:17:27.342Z,61.88
2018-12-11T13:19:55.568Z,61.85
2018-12-11T13:22:23.909Z,61.89
2018-12-11T13:24:52.162Z,62.36
2018-12-11T13:27:26.184Z,62.82
2018-12-11T13:29:54.390Z,62.56
2018-12-11T13:32:22.652Z,62.13
2018-12-11T13:34:50.929Z,62.65
2018-12-11T13:37:19.272Z,62.68
2018-12-11T13:39:47.523Z,62.65
2018-12-11T13:42:15.868Z,62.94
2018-12-11T13:44:44.087Z,63.28
2018-12-11T13:47:12.509Z,63.47
2018-12-11T13:49:40.755Z,63.29
2018-12-11T13:52:08.957Z,63.17
2018-12-11T13:54:37.271Z,62.83
2018-12-11T13:57:05.580Z,62.98
2018-12-11T13:59:33.818Z,62.95
2018-12-11T14:02:02.040Z,63.26
2018-12-11T14:04:30.292Z,63.00
2018-12-11T14:06:58.615Z,62.99
2018-12-11T14:09:32.363Z,63.21
2018-12-11T14:12:00.688Z,63.33
2018-12-11T14:14:28.908Z,63.31
2018-12-11T14:16:57.115Z,63.06
2018-12-11T14:19:25.443Z,62.88
2018-12-11T14:21:53.746Z,63.50
2018-12-11T14:24:22.011Z,63.69
2018-12-11T14:26:50.295Z,63.56
2018-12-11T14:29:18.632Z,63.25
2018-12-11T14:31:47.084Z,63.30
2018-12-11T14:34:15.330Z,63.70
2018-12-11T14:36:43.699Z,63.78
2018-12-11T14:39:12.182Z,63.41
2018-12-11T14:41:40.392Z,63.34
2018-12-11T14:44:08.682Z,63.44
2018-12-11T14:46:37.026Z,63.74
2018-12-11T14:49:05.334Z,63.22
2018-12-11T14:51:33.612Z,64.01
2018-12-11T14:54:02.212Z,64.26
2018-12-11T14:56:30.575Z,64.08
2018-12-11T14:58:58.788Z,63.89
2018-12-11T15:01:27.068Z,64.15
2018-12-11T15:03:55.314Z,64.00
2018-12-11T15:06:23.553Z,64.32
2018-12-11T15:08:51.958Z,64.11
2018-12-11T15:11:20.183Z,64.62
2018-12-11T15:13:48.410Z,64.36
2018-12-11T15:16:17.077Z,64.41
2018-12-11T15:18:45.359Z,64.31
2018-12-11T15:21:13.590Z,64.16
2018-12-11T15:23:41.848Z,64.11
2018-12-11T15:26:10.119Z,64.10
2018-12-11T15:28:38.394Z,64.46
2018-12-11T15:31:11.115Z,64.58
2018-12-11T15:33:39.346Z,64.66
2018-12-11T15:36:07.661Z,64.47
2018-12-11T15:38:35.891Z,64.57
2018-12-11T15:41:04.325Z,64.41
2018-12-11T15:43:32.803Z,64.34
2018-12-11T15:46:01.219Z,64.74
2018-12-11T15:48:29.704Z,64.81
2018-12-11T15:50:58.070Z,64.50
2018-12-11T15:53:27.015Z,64.89
2018-12-11T15:55:55.248Z,65.08
2018-12-11T15:58:25.045Z,65.10
2018-12-11T16:00:53.812Z,65.35
2018-12-11T16:03:22.146Z,65.27
2018-12-11T16:05:50.420Z,64.69
2018-12-11T16:08:18.704Z,65.03
2018-12-11T16:10:46.932Z,65.61
2018-12-11T16:13:15.272Z,65.38
2018-12-11T16:15:43.699Z,65.28
2018-12-11T16:18:11.984Z,65.39
2018-12-11T16:20:40.344Z,65.21
2018-12-11T16:23:08.563Z,65.71
2018-12-11T16:25:36.823Z,65.20
2018-12-11T16:28:05.059Z,65.55
2018-12-11T16:30:33.337Z,65.34
2018-12-11T16:33:01.746Z,65.78
2018-12-11T16:35:29.977Z,65.31
2018-12-11T16:37:58.402Z,65.43
2018-12-11T16:40:26.666Z,65.61
2018-12-11T16:42:54.939Z,65.45
2018-12-11T16:45:23.285Z,65.70
2018-12-11T16:47:51.673Z,65.28
2018-12-11T16:50:19.985Z,65.21
2018-12-11T16:52:49.245Z,65.81
2018-12-11T16:55:17.544Z,65.76
2018-12-11T16:57:45.761Z,65.97
2018-12-11T17:00:14.806Z,66.43
2018-12-11T17:02:43.165Z,66.11
2018-12-11T17:05:11.480Z,66.17
2018-12-11T17:07:39.720Z,66.17
2018-12-11T17:10:08.175Z,66.31
2018-12-11T17:12:37.851Z,66.21
2018-12-11T17:15:10.906Z,66.79
2018-12-11T17:17:40.552Z,66.95
2018-12-11T17:20:09.330Z,66.81
2018-12-11T17:22:38.372Z,67.23
2018-12-11T17:25:06.719Z,66.95
2018-12-11T17:27:35.011Z,67.09
2018-12-11T17:30:03.625Z,67.37
2018-12-11T17:32:31.967Z,67.01
2018-12-11T17:35:00.326Z,66.99
2018-12-11T17:37:28.585Z,67.18
2018-12-11T17:39:56.810Z,66.88
2018-12-11T17:42:44.304Z,67.31
2018-12-11T17:45:12.584Z,67.07
2018-12-11T17:47:40.905Z,66.81
2018-12-11T17:50:09.467Z,66.65
2018-12-11T17:52:37.748Z,66.85
2018-12-11T17:55:06.197Z,66.72
2018-12-11T17:57:34.790Z,66.06
2018-12-11T18:00:03.393Z,66.83
2018-12-11T18:02:35.835Z,66.85
2018-12-11T18:05:05.233Z,67.25
2018-12-11T18:07:33.495Z,66.87
2018-12-11T18:10:01.971Z,67.09
2018-12-11T18:12:30.309Z,67.23
2018-12-11T18:14:58.676Z,67.69
2018-12-11T18:17:27.273Z,67.52
2018-12-11T18:19:55.789Z,68.12
2018-12-11T18:22:24.151Z,68.05
2018-12-11T18:24:52.468Z,67.91
2018-12-11T18:27:20.787Z,67.88
2018-12-11T18:29:49.061Z,68.03
2018-12-11T18:32:17.529Z,67.63
2018-12-11T18:34:48.206Z,67.69
2018-12-11T18:37:16.455Z,67.28
2018-12-11T18:39:44.898Z,67.37
2018-12-11T18:42:13.199Z,67.26
2018-12-11T18:44:41.628Z,67.32
2018-12-11T18:47:09.947Z,67.79
2018-12-11T18:49:38.347Z,67.76
2018-12-11T18:52:06.816Z,67.79
2018-12-11T18:54:35.369Z,67.78
2018-12-11T18:57:03.679Z,67.91
2018-12-11T18:59:32.267Z,67.76
2018-12-11T19:02:00.616Z,67.95
2018-12-11T19:04:29.003Z,67.93
2018-12-11T19:06:57.530Z,67.51
2018-12-11T19:09:25.896Z,67.45
2018-12-11T19:11:54.192Z,68.10
2018-12-11T19:14:22.496Z,68.34
2018-12-11T19:16:50.845Z,68.08
2018-12-11T19:19:19.281Z,68.40
2018-12-11T19:21:47.614Z,68.43
2018-12-11T19:24:30.930Z,67.89
2018-12-11T19:26:59.254Z,67.85
2018-12-11T19:29:27.924Z,67.88
2018-12-11T19:34:48.857Z,67.94
2018-12-11T19:40:10.530Z,68.20
2018-12-11T19:42:39.719Z,68.54
2018-12-11T19:45:08.343Z,68.81
2018-12-11T19:47:36.924Z,68.95
2018-12-11T19:50:06.037Z,69.31
2018-12-11T19:52:39.663Z,69.43
2018-12-11T19:55:05.181Z,69.07
2018-12-11T19:57:33.735Z,68.95
2018-12-11T20:00:02.075Z,68.81
2018-12-11T20:02:30.616Z,68.76
2018-12-11T20:04:59.148Z,68.66
2018-12-11T20:07:27.482Z,69.27
2018-12-11T20:10:01.335Z,68.35
2018-12-11T20:12:30.030Z,68.84
2018-12-11T20:15:04.730Z,69.60
2018-12-11T20:17:31.385Z,69.38
2018-12-11T20:20:00.568Z,70.05
2018-12-11T20:22:30.045Z,69.99
2018-12-11T20:24:59.417Z,70.09
2018-12-11T20:27:28.683Z,70.30
2018-12-11T20:29:58.064Z,69.97
2018-12-11T20:32:27.259Z,70.88
2018-12-11T20:34:56.527Z,70.62
2018-12-11T20:37:26.473Z,71.05
2018-12-11T20:39:56.485Z,71.45
2018-12-11T20:42:26.198Z,71.05
2018-12-11T20:44:55.360Z,71.23
2018-12-11T20:47:24.760Z,71.48
2018-12-11T20:49:54.353Z,71.76
2018-12-11T20:52:23.859Z,71.59
2018-12-11T20:54:52.708Z,71.49
2018-12-11T20:57:21.278Z,72.23
2018-12-11T20:59:50.583Z,72.06
2018-12-11T21:02:20.110Z,72.34
2018-12-11T21:04:49.272Z,72.23
2018-12-11T21:07:18.754Z,72.77
2018-12-11T21:09:48.243Z,72.34
2018-12-11T21:12:17.862Z,72.42
2018-12-11T21:14:46.408Z,72.05
2018-12-11T21:17:15.542Z,72.52
2018-12-11T21:19:44.096Z,71.54
2018-12-11T21:22:12.760Z,71.59
2018-12-11T21:24:41.075Z,71.57
2018-12-11T21:27:09.486Z,72.00
2018-12-11T21:29:37.934Z,72.10
2018-12-11T21:32:06.482Z,71.51
2018-12-11T21:34:34.983Z,71.83
2018-12-11T21:37:03.306Z,72.18
2018-12-11T21:39:31.712Z,71.95
2018-12-11T21:42:00.183Z,72.36
2018-12-11T21:44:29.206Z,72.43
2018-12-11T21:46:57.785Z,72.32
2018-12-11T21:49:26.138Z,71.95
2018-12-11T21:51:54.524Z,71.86
2018-12-11T21:54:23.547Z,72.19
2018-12-11T21:56:52.227Z,72.02
2018-12-11T21:59:20.618Z,72.27
2018-12-11T22:01:49.012Z,72.15
2018-12-11T22:04:17.616Z,72.33
2018-12-11T22:06:45.940Z,72.52
2018-12-11T22:09:14.465Z,72.30
2018-12-11T22:11:42.778Z,72.24
2018-12-11T22:14:11.199Z,72.24
2018-12-11T22:16:39.496Z,72.40
2018-12-11T22:19:07.815Z,72.20
2018-12-11T22:21:36.208Z,72.28
2018-12-11T22:24:04.683Z,72.25
2018-12-11T22:26:33.066Z,72.25
2018-12-11T22:29:01.397Z,71.93
2018-12-11T22:31:29.732Z,72.06
2018-12-11T22:33:58.070Z,72.56
2018-12-11T22:36:26.427Z,72.83
2018-12-11T22:38:54.823Z,72.62
2018-12-11T22:41:23.176Z,72.88
2018-12-11T22:43:51.406Z,73.08
2018-12-11T22:46:19.762Z,72.38
2018-12-11T22:48:48.361Z,72.86
2018-12-11T22:51:16.719Z,72.99
2018-12-11T22:53:45.031Z,72.45
2018-12-11T22:56:13.339Z,72.76
2018-12-11T22:58:41.606Z,73.29
2018-12-11T23:01:10.177Z,73.21
2018-12-11T23:03:38.513Z,73.80
2018-12-11T23:06:07.280Z,73.69
2018-12-11T23:08:35.767Z,74.00
2018-12-11T23:11:04.256Z,73.89
2018-12-11T23:13:32.500Z,74.00
2018-12-11T23:16:00.816Z,74.20
2018-12-11T23:18:35.655Z,73.86
2018-12-11T23:21:03.933Z,73.62
2018-12-11T23:23:32.427Z,73.35
2018-12-11T23:26:00.752Z,73.20
2018-12-11T23:28:29.031Z,73.39
2018-12-11T23:30:57.439Z,73.56
2018-12-11T23:33:25.882Z,73.34
2018-12-11T23:35:54.168Z,73.56
2018-12-11T23:38:22.587Z,73.70
2018-12-11T23:40:51.051Z,74.12
2018-12-11T23:43:19.323Z,73.95
2018-12-11T23:45:47.728Z,73.65
2018-12-11T23:48:15.961Z,73.41
2018-12-11T23:50:44.227Z,73.45
2018-12-11T23:53:12.520Z,73.33
2018-12-11T23:55:40.750Z,73.26
2018-12-11T23:58:09.680Z,73.21
